Time;durP1;ratioP1;P1;durP2;ratioP2;P2;SDS_P1;SDS_P2;PMS_P1;PMS_P2;Temp;Humidity;BMP_temperature;BMP_pressure;BME280_temperature;BME280_humidity;BME280_pressure;Samples;Min_cycle;Max_cycle;Signal;HPM_P1;HPM_P2
2021/09/20 00:01:18;;;;;;;9.50;7.78;;;12.50;99.90;;;;;;4969266;28;20056;-58
2021/09/20 00:03:44;;;;;;;10.07;7.35;;;12.50;99.90;;;;;;4960069;28;20077;-57
2021/09/20 00:06:10;;;;;;;8.25;7.18;;;12.50;99.90;;;;;;4970573;28;20041;-57
2021/09/20 00:08:35;;;;;;;12.60;7.90;;;12.50;99.90;;;;;;4972718;28;20494;-58
2021/09/20 00:11:01;;;;;;;9.85;7.63;;;12.40;99.90;;;;;;4973994;28;20034;-57
2021/09/20 00:13:27;;;;;;;9.23;7.82;;;12.40;99.90;;;;;;4975443;28;20433;-57
2021/09/20 00:15:53;;;;;;;11.60;7.55;;;12.40;99.90;;;;;;4970085;28;20101;-56
2021/09/20 00:18:19;;;;;;;10.88;8.15;;;12.40;99.90;;;;;;4977480;28;20553;-59
2021/09/20 00:20:44;;;;;;;10.93;7.00;;;12.40;99.90;;;;;;4970512;28;20039;-59
2021/09/20 00:23:10;;;;;;;10.55;8.00;;;12.40;99.90;;;;;;4972354;28;20031;-59
2021/09/20 00:25:36;;;;;;;9.65;7.40;;;12.40;99.90;;;;;;4974896;28;20078;-57
2021/09/20 00:28:02;;;;;;;8.20;6.40;;;12.40;99.90;;;;;;4970457;28;20099;-54
2021/09/20 00:30:27;;;;;;;8.70;7.45;;;12.40;99.90;;;;;;4970155;28;20027;-57
2021/09/20 00:32:53;;;;;;;10.90;7.63;;;12.40;99.90;;;;;;4970622;28;20030;-56
2021/09/20 00:35:18;;;;;;;8.00;7.00;;;12.40;99.90;;;;;;4972486;28;20022;-58
2021/09/20 00:37:44;;;;;;;9.00;7.40;;;12.40;99.90;;;;;;4971628;28;20031;-58
2021/09/20 00:40:10;;;;;;;9.52;7.75;;;12.40;99.90;;;;;;4970332;28;20062;-59
2021/09/20 00:42:36;;;;;;;14.25;7.47;;;12.40;99.90;;;;;;4968816;28;20026;-58
2021/09/20 00:45:04;;;;;;;9.80;7.13;;;12.40;99.90;;;;;;4971170;28;20162;-58
2021/09/20 00:47:29;;;;;;;10.82;7.25;;;12.40;99.90;;;;;;4954942;28;20513;-57
2021/09/20 00:49:55;;;;;;;11.02;8.38;;;12.40;99.90;;;;;;4973266;28;20039;-59
2021/09/20 00:52:20;;;;;;;14.82;8.82;;;12.40;99.90;;;;;;4976302;28;20066;-57
2021/09/20 00:54:50;;;;;;;10.18;7.38;;;12.30;99.90;;;;;;4974015;28;20179;-57
2021/09/20 00:57:15;;;;;;;10.23;7.45;;;12.30;99.90;;;;;;4973764;28;20149;-59
2021/09/20 00:59:41;;;;;;;11.23;7.65;;;12.30;99.90;;;;;;4970942;28;20113;-59
2021/09/20 01:02:07;;;;;;;8.02;7.07;;;12.30;99.90;;;;;;4972215;28;20023;-56
2021/09/20 01:04:32;;;;;;;9.40;7.28;;;12.30;99.90;;;;;;4972553;28;20014;-60
2021/09/20 01:06:58;;;;;;;11.25;8.45;;;12.30;99.90;;;;;;4975792;28;20031;-58
2021/09/20 01:09:25;;;;;;;10.85;7.38;;;12.30;99.90;;;;;;4971086;28;20386;-56
2021/09/20 01:11:52;;;;;;;9.13;7.07;;;12.30;99.90;;;;;;4977406;28;20030;-54
2021/09/20 01:14:17;;;;;;;10.85;7.75;;;12.30;99.90;;;;;;4973304;28;20023;-59
2021/09/20 01:16:43;;;;;;;10.00;7.40;;;12.30;99.90;;;;;;4972373;28;20110;-61
2021/09/20 01:19:09;;;;;;;9.60;7.75;;;12.30;99.90;;;;;;4974536;28;20098;-59
2021/09/20 01:21:34;;;;;;;10.98;7.53;;;12.20;99.90;;;;;;4974129;28;20023;-58
2021/09/20 01:24:00;;;;;;;11.40;7.68;;;12.30;99.90;;;;;;4969193;28;20045;-59
2021/09/20 01:26:26;;;;;;;9.13;7.85;;;12.20;99.90;;;;;;4972202;28;20553;-56
2021/09/20 01:28:51;;;;;;;9.20;7.28;;;12.20;99.90;;;;;;4969458;28;20050;-57
2021/09/20 01:31:17;;;;;;;9.85;7.38;;;12.20;99.90;;;;;;4974152;28;20035;-58
2021/09/20 01:33:42;;;;;;;9.75;7.25;;;12.20;99.90;;;;;;4970410;28;20486;-57
2021/09/20 01:36:08;;;;;;;14.00;7.20;;;12.20;99.90;;;;;;4974504;28;20023;-56
2021/09/20 01:38:34;;;;;;;9.30;7.55;;;12.20;99.90;;;;;;4972281;28;21455;-57
2021/09/20 01:40:59;;;;;;;9.93;7.40;;;12.20;99.90;;;;;;4974808;28;20114;-57
2021/09/20 01:43:25;;;;;;;10.65;7.53;;;12.20;99.90;;;;;;4968513;28;20537;-55
2021/09/20 01:45:50;;;;;;;14.10;7.63;;;12.20;99.90;;;;;;4972577;28;20537;-57
2021/09/20 01:48:18;;;;;;;11.10;7.90;;;12.20;99.90;;;;;;4971689;28;20042;-58
2021/09/20 01:50:44;;;;;;;13.63;7.45;;;12.10;99.90;;;;;;4970856;28;20081;-58
2021/09/20 01:53:10;;;;;;;11.52;7.53;;;12.10;99.90;;;;;;4975719;28;20478;-58
2021/09/20 01:55:35;;;;;;;11.30;8.00;;;12.10;99.90;;;;;;4971073;28;20097;-57
2021/09/20 01:58:02;;;;;;;11.93;7.63;;;12.10;99.90;;;;;;4968650;28;20054;-55
2021/09/20 02:00:27;;;;;;;9.65;7.28;;;12.00;99.90;;;;;;4943628;28;20114;-54
2021/09/20 02:02:53;;;;;;;10.52;8.23;;;12.00;99.90;;;;;;4971445;28;20106;-49
2021/09/20 02:05:18;;;;;;;11.95;9.00;;;11.90;99.90;;;;;;4966080;28;20102;-55
2021/09/20 02:07:44;;;;;;;10.32;7.82;;;11.80;99.90;;;;;;4964112;28;20564;-53
2021/09/20 02:10:13;;;;;;;17.33;8.07;;;11.70;99.90;;;;;;4974889;28;20560;-55
2021/09/20 02:12:39;;;;;;;13.57;8.15;;;11.60;99.90;;;;;;4950239;28;20501;-59
2021/09/20 02:15:06;;;;;;;9.50;7.60;;;11.60;99.90;;;;;;4972398;28;20027;-57
2021/09/20 02:17:32;;;;;;;14.57;7.97;;;11.50;99.90;;;;;;4975425;28;20027;-57
2021/09/20 02:19:57;;;;;;;10.73;8.27;;;11.40;99.90;;;;;;4979704;28;20601;-57
2021/09/20 02:22:23;;;;;;;13.98;7.45;;;11.40;99.90;;;;;;4971710;28;20082;-57
2021/09/20 02:24:49;;;;;;;11.00;7.70;;;11.40;99.90;;;;;;4976291;28;20039;-57
2021/09/20 02:27:14;;;;;;;11.52;7.57;;;11.40;99.90;;;;;;4978013;28;20195;-57
2021/09/20 02:29:40;;;;;;;9.18;7.70;;;11.40;99.90;;;;;;4975739;28;20026;-55
2021/09/20 02:32:06;;;;;;;12.43;8.63;;;11.30;99.90;;;;;;4977589;28;20046;-58
2021/09/20 02:34:31;;;;;;;12.20;8.90;;;11.40;99.90;;;;;;4973254;28;20035;-58
2021/09/20 02:36:57;;;;;;;10.93;8.65;;;11.30;99.90;;;;;;4974091;28;20023;-60
2021/09/20 02:39:23;;;;;;;10.35;7.93;;;11.30;99.90;;;;;;4970464;28;20042;-58
2021/09/20 02:41:49;;;;;;;10.93;8.00;;;11.30;99.90;;;;;;4972641;28;20536;-57
2021/09/20 02:44:14;;;;;;;10.02;8.23;;;11.20;99.90;;;;;;4981047;28;20058;-59
2021/09/20 02:46:40;;;;;;;11.20;8.43;;;11.10;99.90;;;;;;4974679;28;20446;-59
2021/09/20 02:49:06;;;;;;;10.50;7.75;;;11.00;99.90;;;;;;4976671;28;20043;-60
2021/09/20 02:51:32;;;;;;;10.02;8.35;;;11.00;99.90;;;;;;4978538;28;20067;-54
2021/09/20 02:53:57;;;;;;;12.00;8.55;;;11.00;99.90;;;;;;4979834;28;20546;-54
2021/09/20 02:56:23;;;;;;;12.43;8.15;;;11.00;99.90;;;;;;4980734;28;20023;-59
2021/09/20 02:58:50;;;;;;;10.10;7.60;;;11.00;99.90;;;;;;4971834;28;20053;-58
2021/09/20 03:01:16;;;;;;;12.13;8.90;;;11.00;99.90;;;;;;4979005;28;20117;-58
2021/09/20 03:03:41;;;;;;;9.40;7.68;;;10.90;99.90;;;;;;4979060;28;20066;-55
2021/09/20 03:06:07;;;;;;;10.85;7.68;;;10.90;99.90;;;;;;4977586;28;20078;-55
2021/09/20 03:08:33;;;;;;;13.40;8.73;;;10.80;99.90;;;;;;4972840;28;20095;-59
2021/09/20 03:10:58;;;;;;;13.38;7.93;;;10.90;99.90;;;;;;4979081;28;20054;-60
2021/09/20 03:13:24;;;;;;;11.70;8.55;;;10.90;99.90;;;;;;4975524;28;20749;-59
2021/09/20 03:15:50;;;;;;;10.80;7.88;;;10.90;99.90;;;;;;4978660;28;20034;-59
2021/09/20 03:18:15;;;;;;;10.95;7.90;;;10.90;99.90;;;;;;4975690;28;20023;-58
2021/09/20 03:20:41;;;;;;;10.60;7.82;;;10.90;99.90;;;;;;4976549;28;20022;-57
2021/09/20 03:23:07;;;;;;;11.45;7.60;;;11.00;99.90;;;;;;4979131;28;20490;-58
2021/09/20 03:25:32;;;;;;;10.70;7.75;;;11.00;99.90;;;;;;4973016;28;20027;-58
2021/09/20 03:27:58;;;;;;;12.02;7.70;;;11.00;99.90;;;;;;4977655;28;20026;-58
2021/09/20 03:30:24;;;;;;;13.05;8.07;;;11.00;99.90;;;;;;4975325;28;20034;-60
2021/09/20 03:32:49;;;;;;;11.70;7.85;;;11.00;99.90;;;;;;4969851;28;20146;-58
2021/09/20 03:35:16;;;;;;;13.32;7.95;;;11.00;99.90;;;;;;4976251;28;20034;-57
2021/09/20 03:37:46;;;;;;;10.10;7.20;;;11.00;99.90;;;;;;4973740;28;20031;-60
2021/09/20 03:40:14;;;;;;;12.25;8.00;;;11.10;99.90;;;;;;4974669;28;20181;-58
2021/09/20 03:42:43;;;;;;;9.85;7.60;;;11.10;99.90;;;;;;4975154;28;20034;-55
2021/09/20 03:45:10;;;;;;;11.70;8.13;;;11.10;99.90;;;;;;4979240;28;20117;-58
2021/09/20 03:47:35;;;;;;;12.20;8.80;;;11.10;99.90;;;;;;4976245;28;20030;-58
2021/09/20 03:50:01;;;;;;;10.73;7.18;;;11.00;99.90;;;;;;4977447;28;20042;-60
2021/09/20 03:52:26;;;;;;;13.88;7.75;;;11.00;99.90;;;;;;4976846;28;20034;-59
2021/09/20 03:54:52;;;;;;;9.48;7.05;;;11.00;99.90;;;;;;4973550;28;20034;-57
2021/09/20 03:57:17;;;;;;;10.82;8.20;;;11.00;99.90;;;;;;4964158;28;20038;-54
2021/09/20 03:59:43;;;;;;;9.25;7.38;;;11.00;99.90;;;;;;4969511;28;20019;-58
2021/09/20 04:02:09;;;;;;;12.93;7.57;;;11.00;99.90;;;;;;4979656;28;20023;-51
2021/09/20 04:04:34;;;;;;;10.95;8.23;;;11.00;99.90;;;;;;4980757;28;20077;-59
2021/09/20 04:07:03;;;;;;;10.13;8.57;;;11.00;99.90;;;;;;4977627;28;20031;-58
2021/09/20 04:09:29;;;;;;;9.00;6.63;;;11.00;99.90;;;;;;4976423;28;20483;-59
2021/09/20 04:11:55;;;;;;;11.88;7.03;;;11.00;99.90;;;;;;4976079;28;20045;-58
2021/09/20 04:14:20;;;;;;;9.77;7.63;;;11.00;99.90;;;;;;4970895;28;20030;-57
2021/09/20 04:16:46;;;;;;;10.48;7.20;;;11.00;99.90;;;;;;4976349;28;20028;-56
2021/09/20 04:19:11;;;;;;;9.45;7.03;;;11.00;99.90;;;;;;4975563;28;20044;-57
2021/09/20 04:21:37;;;;;;;9.30;6.78;;;10.90;99.90;;;;;;4977581;28;20077;-57
2021/09/20 04:24:02;;;;;;;12.48;7.57;;;10.90;99.90;;;;;;4978439;28;20030;-57
2021/09/20 04:26:28;;;;;;;9.50;7.40;;;10.80;99.90;;;;;;4970069;28;20102;-57
2021/09/20 04:28:53;;;;;;;11.60;7.57;;;10.70;99.90;;;;;;4973999;28;20066;-58
2021/09/20 04:31:19;;;;;;;10.00;7.80;;;10.70;99.90;;;;;;4975787;28;20525;-58
2021/09/20 04:33:45;;;;;;;14.02;8.05;;;10.70;99.90;;;;;;4977346;28;20081;-58
2021/09/20 04:36:10;;;;;;;9.55;7.32;;;10.60;99.90;;;;;;4967611;28;20120;-53
2021/09/20 04:38:36;;;;;;;10.45;7.43;;;10.60;99.90;;;;;;4973991;28;20070;-59
2021/09/20 04:41:01;;;;;;;10.07;7.13;;;10.70;99.90;;;;;;4980052;28;20038;-60
2021/09/20 04:43:27;;;;;;;13.27;7.30;;;10.70;99.90;;;;;;4975640;28;20027;-58
2021/09/20 04:45:53;;;;;;;10.18;6.80;;;10.70;99.90;;;;;;4974271;28;20039;-58
2021/09/20 04:48:18;;;;;;;10.77;6.72;;;10.80;99.90;;;;;;4976800;28;20054;-53
2021/09/20 04:50:46;;;;;;;11.43;7.20;;;10.80;99.90;;;;;;4973937;28;20383;-55
2021/09/20 04:53:13;;;;;;;8.57;6.63;;;10.80;99.90;;;;;;4978645;28;20049;-55
2021/09/20 04:55:39;;;;;;;8.15;6.07;;;10.90;99.90;;;;;;4965294;28;20041;-58
2021/09/20 04:58:06;;;;;;;8.77;6.72;;;10.90;99.90;;;;;;4978379;28;20034;-58
2021/09/20 05:00:33;;;;;;;12.02;6.63;;;11.00;99.90;;;;;;4975515;28;20371;-58
2021/09/20 05:02:58;;;;;;;11.55;8.00;;;11.10;99.90;;;;;;4977066;28;20062;-59
2021/09/20 05:05:24;;;;;;;9.50;6.88;;;11.10;99.90;;;;;;4973203;28;20030;-58
2021/09/20 05:07:49;;;;;;;17.48;7.38;;;11.20;99.90;;;;;;4966976;28;20042;-58
2021/09/20 05:10:15;;;;;;;8.85;6.63;;;11.20;99.90;;;;;;4979666;28;20074;-57
2021/09/20 05:12:41;;;;;;;10.30;7.25;;;11.20;99.90;;;;;;4983425;28;20041;-56
2021/09/20 05:15:11;;;;;;;11.07;7.70;;;11.30;99.90;;;;;;4976108;28;20041;-59
2021/09/20 05:17:37;;;;;;;10.50;6.97;;;11.30;99.90;;;;;;4974077;28;20022;-58
2021/09/20 05:20:05;;;;;;;8.40;6.07;;;11.30;99.90;;;;;;4975877;28;20045;-58
2021/09/20 05:22:31;;;;;;;8.05;5.90;;;11.30;99.90;;;;;;4976294;28;20483;-58
2021/09/20 05:24:56;;;;;;;9.93;6.50;;;11.30;99.90;;;;;;4973766;28;20036;-57
2021/09/20 05:27:22;;;;;;;11.70;7.10;;;11.30;99.90;;;;;;4974143;28;20398;-60
2021/09/20 05:29:48;;;;;;;8.02;6.30;;;11.40;99.90;;;;;;4973412;28;20023;-56
2021/09/20 05:32:13;;;;;;;8.73;6.28;;;11.40;99.90;;;;;;4971033;28;20516;-57
2021/09/20 05:34:39;;;;;;;8.27;6.60;;;11.50;99.90;;;;;;4969481;28;20039;-58
2021/09/20 05:37:05;;;;;;;9.68;7.53;;;11.40;99.90;;;;;;4964327;28;20574;-58
2021/09/20 05:39:33;;;;;;;10.68;6.30;;;11.50;99.90;;;;;;4970832;28;20026;-57
2021/09/20 05:41:58;;;;;;;7.20;5.88;;;11.60;99.90;;;;;;4980352;28;20042;-58
2021/09/20 05:44:24;;;;;;;9.88;6.53;;;11.60;99.90;;;;;;4961639;28;20042;-59
2021/09/20 05:46:50;;;;;;;8.85;6.00;;;11.70;99.90;;;;;;4978436;28;20038;-57
2021/09/20 05:49:15;;;;;;;8.15;5.95;;;11.70;99.90;;;;;;4967673;28;20055;-56
2021/09/20 05:51:41;;;;;;;9.07;5.93;;;11.70;99.90;;;;;;4981056;28;20481;-57
2021/09/20 05:54:08;;;;;;;9.57;5.88;;;11.80;99.90;;;;;;4970843;28;20090;-58
2021/09/20 05:56:34;;;;;;;7.75;5.93;;;11.70;99.90;;;;;;4970365;28;20450;-60
2021/09/20 05:58:59;;;;;;;9.85;6.00;;;11.80;99.90;;;;;;4968576;28;20058;-58
2021/09/20 06:01:25;;;;;;;8.65;6.47;;;11.90;99.90;;;;;;4972481;28;20035;-56
2021/09/20 06:03:50;;;;;;;9.00;6.22;;;11.90;99.90;;;;;;4981024;28;20035;-54
2021/09/20 06:06:16;;;;;;;9.00;6.40;;;12.00;99.90;;;;;;4973693;28;20027;-56
2021/09/20 06:08:41;;;;;;;7.72;5.88;;;12.00;99.90;;;;;;4979361;28;20081;-57
2021/09/20 06:11:07;;;;;;;8.52;5.82;;;12.10;99.90;;;;;;4975305;28;20557;-54
2021/09/20 06:13:33;;;;;;;12.55;7.28;;;12.20;99.90;;;;;;4968840;28;20027;-53
2021/09/20 06:15:58;;;;;;;8.70;5.50;;;12.20;99.90;;;;;;4973866;28;20458;-59
2021/09/20 06:18:24;;;;;;;11.13;6.50;;;12.30;99.90;;;;;;4974046;28;20054;-59
2021/09/20 06:20:49;;;;;;;11.63;6.78;;;12.40;99.90;;;;;;4980377;28;20050;-58
2021/09/20 06:23:15;;;;;;;8.73;5.47;;;12.40;99.90;;;;;;4974555;28;20099;-56
2021/09/20 06:25:42;;;;;;;8.30;5.60;;;12.50;99.90;;;;;;4984380;28;20532;-59
2021/09/20 06:28:08;;;;;;;9.38;5.88;;;12.60;99.90;;;;;;4983907;28;20406;-52
2021/09/20 06:30:34;;;;;;;10.73;5.57;;;12.60;99.90;;;;;;4977653;28;20034;-58
2021/09/20 06:32:59;;;;;;;8.68;6.30;;;12.70;99.90;;;;;;4981494;28;20039;-59
2021/09/20 06:35:25;;;;;;;10.20;5.65;;;12.80;99.90;;;;;;4975676;28;20070;-56
2021/09/20 06:37:50;;;;;;;7.55;5.50;;;12.80;99.90;;;;;;4966093;28;20043;-54
2021/09/20 06:40:16;;;;;;;6.93;5.70;;;12.90;99.90;;;;;;4972202;28;20061;-57
2021/09/20 06:42:42;;;;;;;7.13;5.80;;;13.00;99.90;;;;;;4973291;28;20079;-59
2021/09/20 06:45:09;;;;;;;10.32;6.78;;;13.10;99.90;;;;;;4969856;28;20578;-60
2021/09/20 06:47:34;;;;;;;7.43;5.65;;;13.20;99.90;;;;;;4967250;28;20039;-59
2021/09/20 06:50:00;;;;;;;9.52;6.30;;;13.10;99.90;;;;;;4970437;28;20031;-59
2021/09/20 06:52:26;;;;;;;7.70;5.95;;;13.30;99.90;;;;;;4964914;28;20093;-59
2021/09/20 06:54:52;;;;;;;7.25;5.63;;;13.50;99.90;;;;;;4973296;28;20180;-56
2021/09/20 06:57:17;;;;;;;7.38;5.80;;;13.50;99.90;;;;;;4967169;28;20501;-58
2021/09/20 06:59:43;;;;;;;8.95;7.03;;;13.70;99.90;;;;;;4968630;28;20063;-60
2021/09/20 07:02:08;;;;;;;13.82;6.00;;;13.80;99.90;;;;;;4969332;28;20027;-58
2021/09/20 07:04:34;;;;;;;9.30;5.13;;;14.00;99.90;;;;;;4972120;28;20030;-57
2021/09/20 07:07:00;;;;;;;8.23;5.63;;;14.20;99.90;;;;;;4972376;28;20101;-60
2021/09/20 07:09:25;;;;;;;10.27;6.20;;;14.20;99.90;;;;;;4969680;28;21288;-61
2021/09/20 07:11:51;;;;;;;7.22;5.78;;;14.40;99.90;;;;;;4968779;28;20502;-60
2021/09/20 07:14:16;;;;;;;7.78;5.25;;;14.60;99.90;;;;;;4970786;28;20027;-57
2021/09/20 07:16:42;;;;;;;6.57;5.82;;;14.80;99.90;;;;;;4972287;28;20027;-58
2021/09/20 07:19:08;;;;;;;7.60;5.53;;;15.10;99.90;;;;;;4971162;28;20507;-60
2021/09/20 07:21:34;;;;;;;9.73;5.85;;;15.20;98.70;;;;;;4971839;28;20457;-61
2021/09/20 07:23:59;;;;;;;7.28;5.55;;;15.50;98.90;;;;;;4970756;28;20085;-59
2021/09/20 07:26:28;;;;;;;6.90;6.07;;;15.70;98.90;;;;;;4969360;28;20031;-61
2021/09/20 07:28:54;;;;;;;6.82;4.95;;;15.60;97.90;;;;;;4967972;28;20082;-59
2021/09/20 07:31:20;;;;;;;6.03;4.95;;;15.80;98.20;;;;;;4967276;28;20049;-58
2021/09/20 07:33:47;;;;;;;6.57;5.40;;;15.70;97.60;;;;;;4969683;28;20027;-59
2021/09/20 07:36:13;;;;;;;6.97;5.03;;;15.80;97.00;;;;;;4966495;28;20081;-57
2021/09/20 07:38:38;;;;;;;6.72;5.28;;;15.90;97.30;;;;;;4964963;28;20046;-58
2021/09/20 07:41:05;;;;;;;7.20;5.18;;;16.00;98.00;;;;;;4966535;28;20024;-59
2021/09/20 07:43:30;;;;;;;8.00;6.07;;;16.20;96.80;;;;;;4970441;28;20037;-59
2021/09/20 07:45:56;;;;;;;5.70;4.78;;;16.00;96.40;;;;;;4961798;28;20145;-56
2021/09/20 07:48:21;;;;;;;5.45;4.88;;;16.10;96.70;;;;;;4974568;28;20081;-58
2021/09/20 07:50:47;;;;;;;11.85;5.03;;;16.10;96.80;;;;;;4976286;28;20113;-58
2021/09/20 07:53:13;;;;;;;7.15;5.50;;;16.00;97.40;;;;;;4974612;28;20463;-55
2021/09/20 07:55:39;;;;;;;8.05;4.75;;;16.20;96.90;;;;;;4976183;28;20057;-53
2021/09/20 07:58:07;;;;;;;7.95;5.38;;;16.50;96.90;;;;;;4972859;28;20027;-59
2021/09/20 08:00:37;;;;;;;6.50;5.05;;;16.30;95.60;;;;;;4971898;28;20034;-57
2021/09/20 08:03:06;;;;;;;6.65;5.78;;;16.10;95.80;;;;;;4972254;28;20516;-59
2021/09/20 08:05:33;;;;;;;6.43;5.38;;;15.90;96.20;;;;;;4972024;28;20042;-59
2021/09/20 08:07:59;;;;;;;9.48;5.80;;;15.90;96.00;;;;;;4975960;28;20041;-58
2021/09/20 08:10:24;;;;;;;6.22;5.38;;;15.80;96.70;;;;;;4975963;28;20401;-59
2021/09/20 08:12:50;;;;;;;7.63;5.90;;;15.90;96.40;;;;;;4978155;28;20063;-58
2021/09/20 08:15:16;;;;;;;7.55;5.88;;;15.80;96.80;;;;;;4971966;28;20054;-59
2021/09/20 08:17:42;;;;;;;6.88;5.78;;;15.90;97.00;;;;;;4978912;28;20117;-54
2021/09/20 08:20:09;;;;;;;7.38;5.13;;;16.20;96.70;;;;;;4974703;28;20485;-59
2021/09/20 08:22:34;;;;;;;8.25;6.25;;;16.50;96.90;;;;;;4976404;28;20110;-60
2021/09/20 08:25:01;;;;;;;5.97;5.35;;;16.60;95.50;;;;;;4974974;28;20457;-61
2021/09/20 08:27:27;;;;;;;6.90;4.80;;;16.40;95.40;;;;;;4977483;28;20018;-53
2021/09/20 08:29:53;;;;;;;5.95;5.03;;;16.60;96.00;;;;;;4968644;28;20037;-58
2021/09/20 08:32:18;;;;;;;6.68;5.40;;;16.50;95.10;;;;;;4971677;28;20439;-55
2021/09/20 08:34:45;;;;;;;6.28;4.82;;;16.60;95.50;;;;;;4977949;28;20080;-59
2021/09/20 08:37:10;;;;;;;10.75;5.55;;;16.40;95.10;;;;;;4975528;28;20018;-53
2021/09/20 08:39:36;;;;;;;6.40;4.95;;;16.30;95.20;;;;;;4974546;28;20037;-59
2021/09/20 08:42:02;;;;;;;5.90;5.30;;;16.30;95.70;;;;;;4974240;28;20038;-59
2021/09/20 08:44:28;;;;;;;6.07;4.72;;;16.20;96.10;;;;;;4971384;28;20074;-58
2021/09/20 08:46:55;;;;;;;9.07;5.55;;;16.40;95.70;;;;;;4963782;28;20798;-61
2021/09/20 08:49:23;;;;;;;6.57;5.00;;;16.50;96.00;;;;;;4962740;28;20406;-59
2021/09/20 08:51:51;;;;;;;8.23;4.90;;;16.80;96.40;;;;;;4976900;28;20038;-61
2021/09/20 08:54:17;;;;;;;14.65;6.53;;;16.80;95.30;;;;;;4970637;28;20050;-57
2021/09/20 08:56:43;;;;;;;6.93;4.47;;;17.10;95.80;;;;;;4972110;28;20536;-58
2021/09/20 08:59:09;;;;;;;6.50;4.90;;;17.30;94.70;;;;;;4955557;28;20117;-60
2021/09/20 09:01:35;;;;;;;5.85;4.75;;;17.40;93.60;;;;;;4972169;28;20026;-59
2021/09/20 09:04:22;;;;;;;6.00;4.60;;;17.50;93.70;;;;;;4973372;28;20023;-61
2021/09/20 09:07:16;;;;;;;5.20;4.30;;;17.20;94.40;;;;;;4968473;28;20397;-59
2021/09/20 09:09:48;;;;;;;6.35;4.43;;;17.30;94.50;;;;;;4968644;28;20430;-60
2021/09/20 09:12:21;;;;;;;7.07;4.97;;;17.30;95.10;;;;;;4977345;28;20116;-60
2021/09/20 09:14:54;;;;;;;7.35;4.70;;;17.40;93.70;;;;;;4974625;28;20069;-60
2021/09/20 09:17:26;;;;;;;8.63;4.75;;;17.60;93.90;;;;;;4974214;28;20498;-60
2021/09/20 09:20:07;;;;;;;5.15;4.43;;;17.30;93.70;;;;;;4979416;28;20125;-60
2021/09/20 09:22:54;;;;;;;7.28;4.60;;;17.40;93.60;;;;;;4978967;28;20504;-59
2021/09/20 09:25:23;;;;;;;8.65;4.68;;;17.60;94.20;;;;;;4978040;28;20031;-58
2021/09/20 09:28:02;;;;;;;6.03;4.50;;;17.90;94.30;;;;;;4977405;28;20033;-60
2021/09/20 09:30:46;;;;;;;7.40;5.28;;;18.30;93.40;;;;;;4976687;28;20113;-55
2021/09/20 09:33:21;;;;;;;5.72;4.63;;;18.60;93.80;;;;;;4965283;28;20027;-59
2021/09/20 09:35:53;;;;;;;7.10;5.07;;;18.40;92.60;;;;;;4972281;28;20041;-59
2021/09/20 09:38:20;;;;;;;6.30;4.88;;;18.20;92.80;;;;;;4977156;28;20053;-58
2021/09/20 09:41:00;;;;;;;6.68;4.35;;;18.50;93.20;;;;;;4977167;28;20031;-59
2021/09/20 09:43:36;;;;;;;7.10;4.53;;;18.70;92.50;;;;;;4969579;28;20490;-57
2021/09/20 09:46:20;;;;;;;6.55;4.60;;;18.60;92.00;;;;;;4975420;28;20484;-56
2021/09/20 09:48:46;;;;;;;5.68;4.40;;;18.80;91.30;;;;;;4962821;28;20147;-58
2021/09/20 09:51:12;;;;;;;8.05;4.80;;;18.90;91.90;;;;;;4972617;28;20398;-59
2021/09/20 09:53:40;;;;;;;5.28;4.65;;;18.90;91.40;;;;;;4974209;28;20034;-61
2021/09/20 09:56:17;;;;;;;5.63;4.93;;;18.80;91.00;;;;;;4979243;28;20109;-59
2021/09/20 09:59:04;;;;;;;5.18;4.40;;;18.60;91.70;;;;;;4979726;28;20026;-61
2021/09/20 10:01:35;;;;;;;10.05;4.85;;;18.40;92.20;;;;;;4976220;28;20517;-57
2021/09/20 10:04:13;;;;;;;5.75;4.40;;;18.40;92.20;;;;;;4973609;28;20063;-60
2021/09/20 10:06:42;;;;;;;5.57;4.38;;;18.70;92.70;;;;;;4962994;28;20589;-59
2021/09/20 10:09:13;;;;;;;5.55;4.20;;;18.60;92.10;;;;;;4975843;28;20030;-54
2021/09/20 10:11:42;;;;;;;7.57;4.88;;;18.70;92.20;;;;;;4978261;28;20037;-61
2021/09/20 10:14:09;;;;;;;5.97;4.45;;;18.60;92.20;;;;;;4972075;28;20019;-58
2021/09/20 10:16:36;;;;;;;5.97;4.63;;;18.60;91.50;;;;;;4965461;28;20042;-58
2021/09/20 10:19:02;;;;;;;4.97;4.47;;;18.20;92.70;;;;;;4980861;28;20043;-59
2021/09/20 10:21:29;;;;;;;7.22;4.80;;;18.20;92.60;;;;;;4979454;28;20041;-59
2021/09/20 10:23:56;;;;;;;5.82;4.60;;;18.20;91.90;;;;;;4975151;28;20387;-61
2021/09/20 10:26:23;;;;;;;8.77;5.15;;;18.00;92.20;;;;;;4980905;28;20030;-59
2021/09/20 10:28:51;;;;;;;6.68;4.70;;;18.30;93.20;;;;;;4971035;28;20027;-57
2021/09/20 10:31:18;;;;;;;8.85;5.50;;;18.60;92.70;;;;;;4974144;28;20026;-59
2021/09/20 10:33:44;;;;;;;7.00;5.13;;;18.90;92.20;;;;;;4973140;28;20027;-59
2021/09/20 10:36:09;;;;;;;4.40;4.00;;;18.90;92.00;;;;;;4973402;28;20026;-54
2021/09/20 10:38:35;;;;;;;5.57;4.50;;;19.00;92.50;;;;;;4972468;28;20515;-58
2021/09/20 10:41:06;;;;;;;5.78;4.85;;;19.00;92.00;;;;;;4977882;28;20038;-58
2021/09/20 10:43:32;;;;;;;5.53;4.38;;;19.10;91.40;;;;;;4971672;28;20026;-60
2021/09/20 10:45:58;;;;;;;7.90;5.20;;;19.00;91.40;;;;;;4942562;28;20038;-55
2021/09/20 10:48:32;;;;;;;7.30;4.25;;;19.00;91.90;;;;;;4971750;28;20023;-60
2021/09/20 10:51:00;;;;;;;5.82;4.57;;;19.10;92.50;;;;;;4973176;28;20027;-59
2021/09/20 10:53:33;;;;;;;7.03;4.45;;;19.10;92.10;;;;;;4973546;28;20059;-59
2021/09/20 10:56:01;;;;;;;4.68;4.28;;;19.10;92.40;;;;;;4964743;28;20054;-58
2021/09/20 10:58:28;;;;;;;8.55;4.38;;;19.10;91.80;;;;;;4973026;28;20106;-58
2021/09/20 11:01:12;;;;;;;6.50;4.70;;;19.00;91.50;;;;;;4972750;28;20100;-51
2021/09/20 11:03:49;;;;;;;6.47;4.80;;;19.30;91.60;;;;;;4969633;28;20027;-60
2021/09/20 11:06:19;;;;;;;4.90;4.28;;;19.30;91.10;;;;;;4968952;28;20025;-53
2021/09/20 11:08:45;;;;;;;7.30;4.20;;;19.10;90.80;;;;;;4969706;28;20113;-57
2021/09/20 11:14:11;;;;;;;6.30;5.25;;;19.60;91.60;;;;;;4976750;28;20033;-53
2021/09/20 11:16:44;;;;;;;6.20;4.75;;;19.70;91.10;;;;;;4970051;28;20435;-51
2021/09/20 11:19:25;;;;;;;6.47;4.05;;;19.90;91.60;;;;;;4987386;28;20118;-57
2021/09/20 11:22:06;;;;;;;7.05;4.70;;;20.00;90.80;;;;;;4972458;28;20034;-55
2021/09/20 11:24:47;;;;;;;5.75;4.20;;;20.00;90.00;;;;;;4973769;28;20045;-52
2021/09/20 11:27:37;;;;;;;6.65;4.90;;;19.70;90.70;;;;;;4958557;28;20383;-58
2021/09/20 11:30:09;;;;;;;5.97;4.00;;;19.80;92.00;;;;;;4976775;28;20173;-53
2021/09/20 11:32:43;;;;;;;4.95;4.28;;;20.00;91.50;;;;;;4981152;28;20019;-53
2021/09/20 11:35:10;;;;;;;5.97;3.78;;;20.10;90.50;;;;;;4974480;28;20122;-54
2021/09/20 11:37:36;;;;;;;13.18;4.60;;;20.20;90.00;;;;;;4973708;28;20026;-56
2021/09/20 11:40:15;;;;;;;5.95;4.43;;;20.00;89.60;;;;;;4979961;28;20021;-57
2021/09/20 11:42:53;;;;;;;7.10;4.00;;;20.00;90.40;;;;;;4969914;28;20072;-57
2021/09/20 11:45:33;;;;;;;4.35;3.95;;;19.70;90.40;;;;;;4960567;28;20023;-53
2021/09/20 11:48:01;;;;;;;5.20;3.88;;;20.00;91.30;;;;;;4960293;28;20061;-55
2021/09/20 11:50:28;;;;;;;5.80;4.22;;;19.90;91.00;;;;;;4977752;28;20078;-56
2021/09/20 11:52:57;;;;;;;7.82;4.47;;;20.00;90.50;;;;;;4976530;28;20565;-52
2021/09/20 11:55:34;;;;;;;7.65;4.20;;;20.10;90.50;;;;;;4968285;28;20058;-54
2021/09/20 11:58:05;;;;;;;9.45;4.43;;;20.30;90.00;;;;;;4972592;28;20058;-55
2021/09/20 12:00:32;;;;;;;8.00;4.25;;;20.30;90.50;;;;;;4974969;28;20039;-51
2021/09/20 12:03:00;;;;;;;6.03;3.85;;;20.30;90.50;;;;;;4980231;28;20030;-57
2021/09/20 12:05:31;;;;;;;7.18;4.07;;;20.20;89.70;;;;;;4972737;28;20026;-57
2021/09/20 12:08:07;;;;;;;4.95;3.95;;;19.70;90.40;;;;;;4973829;28;20125;-54
2021/09/20 12:10:35;;;;;;;4.60;3.70;;;19.70;90.40;;;;;;4975396;28;20042;-58
2021/09/20 12:13:07;;;;;;;6.30;4.47;;;19.80;91.30;;;;;;4978163;28;20034;-55
2021/09/20 12:15:36;;;;;;;7.45;4.53;;;19.70;90.60;;;;;;4972114;28;20081;-52
2021/09/20 12:18:05;;;;;;;5.75;4.30;;;19.90;91.20;;;;;;4976215;28;20076;-51
2021/09/20 12:20:39;;;;;;;5.00;4.13;;;20.20;90.30;;;;;;4972535;28;20138;-52
2021/09/20 12:23:10;;;;;;;5.57;4.15;;;20.20;90.70;;;;;;4972061;28;20027;-58
2021/09/20 12:25:56;;;;;;;6.57;3.70;;;20.00;91.10;;;;;;4977711;28;20037;-53
2021/09/20 12:28:39;;;;;;;4.00;3.55;;;20.10;90.70;;;;;;4973049;28;20042;-58
2021/09/20 12:31:06;;;;;;;5.20;4.17;;;20.30;91.40;;;;;;4971922;28;20026;-51
2021/09/20 12:33:46;;;;;;;11.88;4.25;;;20.10;90.10;;;;;;4974388;28;20690;-56
2021/09/20 12:36:26;;;;;;;5.38;4.32;;;20.00;90.10;;;;;;4977792;28;20018;-52
2021/09/20 12:39:03;;;;;;;5.15;3.78;;;19.90;90.30;;;;;;4970125;28;20499;-53
2021/09/20 12:41:33;;;;;;;5.50;3.60;;;20.20;90.50;;;;;;4981239;28;20026;-57
2021/09/20 12:43:59;;;;;;;5.57;4.55;;;20.00;90.60;;;;;;4973366;28;20054;-54
2021/09/20 12:46:24;;;;;;;5.18;3.97;;;20.10;91.00;;;;;;4973401;28;20558;-54
2021/09/20 12:48:55;;;;;;;5.10;4.13;;;19.80;89.20;;;;;;4970357;28;20039;-58